Time;durP1;ratioP1;P1;durP2;ratioP2;P2;SDS_P1;SDS_P2;PMS_P1;PMS_P2;Temp;Humidity;BMP_temperature;BMP_pressure;BME280_temperature;BME280_humidity;BME280_pressure;Samples;Min_cycle;Max_cycle;Signal;HPM_P1;HPM_P2
2021/03/30 00:00:51;;;;;;;4.57;2.53;;;;;;;13.85;23.31;102694.50;5112408;28;20486;-79
2021/03/30 00:03:19;;;;;;;5.15;2.70;;;;;;;13.84;23.17;102701.88;5113501;27;20061;-79
2021/03/30 00:05:46;;;;;;;4.40;2.67;;;;;;;13.78;23.50;102694.09;5114293;28;20046;-79
2021/03/30 00:08:14;;;;;;;6.45;3.20;;;;;;;13.77;23.46;102700.56;5094435;28;20066;-79
2021/03/30 00:10:44;;;;;;;5.32;2.72;;;;;;;13.76;23.48;102700.66;5093186;28;20066;-79
2021/03/30 00:13:12;;;;;;;4.28;2.72;;;;;;;13.72;23.60;102707.38;5108631;28;20089;-79
2021/03/30 00:15:39;;;;;;;4.32;2.65;;;;;;;13.69;23.58;102705.72;5113994;27;20044;-78
2021/03/30 00:18:07;;;;;;;4.57;2.35;;;;;;;13.68;23.75;102705.81;5113190;28;20058;-79
2021/03/30 00:20:36;;;;;;;5.57;2.75;;;;;;;13.65;23.79;102706.94;5090233;28;20119;-79
2021/03/30 00:23:03;;;;;;;4.80;2.75;;;;;;;13.62;23.59;102701.66;5091419;28;20044;-79
2021/03/30 00:25:31;;;;;;;4.32;2.50;;;;;;;13.60;23.52;102706.38;5094328;28;20043;-79
2021/03/30 00:28:00;;;;;;;4.60;2.70;;;;;;;13.58;23.60;102705.63;5102319;28;20027;-79
2021/03/30 00:30:28;;;;;;;4.13;2.63;;;;;;;13.54;23.74;102696.69;5113555;28;20040;-79
2021/03/30 00:32:56;;;;;;;4.78;3.00;;;;;;;13.53;23.91;102699.53;5089280;28;20111;-79
2021/03/30 00:35:24;;;;;;;5.68;3.40;;;;;;;13.50;23.62;102691.53;5098217;28;20065;-78
2021/03/30 00:37:52;;;;;;;5.32;2.67;;;;;;;13.50;23.82;102691.53;5095748;28;20040;-78
2021/03/30 00:40:19;;;;;;;4.35;2.50;;;;;;;13.46;23.78;102695.47;5094746;28;20090;-78
2021/03/30 00:42:47;;;;;;;6.10;2.60;;;;;;;13.44;24.09;102697.44;5113864;28;20031;-78
2021/03/30 00:45:15;;;;;;;4.53;2.55;;;;;;;13.42;23.64;102696.66;5110823;28;20031;-78
2021/03/30 00:47:45;;;;;;;5.28;2.75;;;;;;;13.40;24.04;102687.66;5107993;28;20055;-78
2021/03/30 00:50:17;;;;;;;4.70;2.67;;;;;;;13.37;24.05;102691.47;5112225;28;20047;-78
2021/03/30 00:52:48;;;;;;;4.80;2.55;;;;;;;13.33;23.96;102697.31;5087298;28;20063;-77
2021/03/30 00:55:32;;;;;;;4.85;2.60;;;;;;;13.31;24.18;102697.41;5110296;28;20046;-78
2021/03/30 00:57:59;;;;;;;4.70;2.55;;;;;;;13.28;24.11;102704.97;5079288;28;20040;-77
2021/03/30 01:00:27;;;;;;;4.40;2.80;;;;;;;13.26;24.24;102696.81;5077489;28;20079;-78
2021/03/30 01:02:54;;;;;;;5.25;2.85;;;;;;;13.24;24.27;102696.06;5092903;28;20040;-78
2021/03/30 01:05:21;;;;;;;5.05;2.58;;;;;;;13.22;24.20;102694.41;5099457;28;20036;-78
2021/03/30 01:08:05;;;;;;;6.03;2.75;;;;;;;13.22;24.67;102698.03;5077797;28;20376;-78
2021/03/30 01:10:46;;;;;;;4.50;2.47;;;;;;;13.17;24.46;102701.09;5075927;28;20458;-78
2021/03/30 01:13:34;;;;;;;4.38;2.60;;;;;;;13.14;24.48;102705.94;5071744;28;20123;-78
2021/03/30 01:16:07;;;;;;;4.63;2.33;;;;;;;13.09;24.64;102699.84;5078435;28;20147;-78
2021/03/30 01:18:43;;;;;;;5.13;2.70;;;;;;;13.08;24.46;102711.84;5092174;28;20074;-78
2021/03/30 01:21:38;;;;;;;4.47;2.53;;;;;;;13.06;24.55;102711.94;5094657;28;20422;-79
2021/03/30 01:24:12;;;;;;;4.57;2.67;;;;;;;13.04;24.75;102704.78;5111649;28;20383;-79
2021/03/30 01:26:49;;;;;;;5.18;2.65;;;;;;;13.01;24.73;102708.59;5100211;28;20035;-78
2021/03/30 01:29:26;;;;;;;3.85;2.42;;;;;;;13.00;24.64;102704.13;5091935;28;20475;-79
2021/03/30 01:31:57;;;;;;;3.95;2.63;;;;;;;12.97;24.73;102708.94;5097376;28;20044;-79
2021/03/30 01:34:25;;;;;;;5.10;2.65;;;;;;;12.93;24.47;102707.38;5103087;28;20122;-78
2021/03/30 01:36:55;;;;;;;5.57;3.10;;;;;;;12.90;24.56;102700.19;5115014;28;20119;-79
2021/03/30 01:39:24;;;;;;;4.50;2.80;;;;;;;12.87;24.54;102692.16;5095170;27;20123;-78
2021/03/30 01:41:53;;;;;;;3.90;2.47;;;;;;;12.84;24.88;102697.00;5116903;28;20035;-79
2021/03/30 01:44:24;;;;;;;3.85;2.50;;;;;;;12.82;25.02;102699.84;5097784;28;20039;-78
2021/03/30 01:46:53;;;;;;;4.57;2.70;;;;;;;12.78;24.82;102696.41;5106369;28;20093;-78
2021/03/30 01:49:22;;;;;;;4.93;2.88;;;;;;;12.76;24.78;102686.47;5100841;28;20050;-78
2021/03/30 01:51:51;;;;;;;4.90;2.53;;;;;;;12.74;24.76;102688.47;5074067;28;20046;-78
2021/03/30 01:54:21;;;;;;;5.78;2.80;;;;;;;12.72;25.02;102690.44;5079772;28;20134;-79
2021/03/30 01:56:51;;;;;;;5.28;2.70;;;;;;;12.70;25.09;102684.16;5097760;28;20044;-78
2021/03/30 01:59:19;;;;;;;3.95;2.50;;;;;;;12.67;25.01;102682.53;5097685;28;20040;-79
2021/03/30 02:01:47;;;;;;;6.72;2.53;;;;;;;12.67;25.19;102685.25;5068600;28;20040;-79
2021/03/30 02:04:16;;;;;;;4.70;2.67;;;;;;;12.65;25.15;102689.97;5096034;28;20102;-79
2021/03/30 02:06:47;;;;;;;4.85;2.83;;;;;;;12.65;25.15;102689.97;5063991;28;20810;-79
2021/03/30 02:09:19;;;;;;;6.22;2.60;;;;;;;12.61;25.02;102685.66;5061215;28;20048;-79
2021/03/30 02:11:59;;;;;;;5.10;2.70;;;;;;;12.60;24.99;102685.75;5106733;28;20032;-79
2021/03/30 02:14:27;;;;;;;5.30;2.70;;;;;;;12.57;25.05;102684.09;5097325;28;20491;-78
2021/03/30 02:17:02;;;;;;;4.47;2.55;;;;;;;12.59;25.30;102687.63;5111421;28;20036;-78
2021/03/30 02:19:40;;;;;;;5.80;3.00;;;;;;;12.57;25.51;102683.22;5106720;27;20028;-79
2021/03/30 02:22:12;;;;;;;5.22;2.72;;;;;;;12.52;25.36;102686.25;5108488;28;20395;-79
2021/03/30 02:24:41;;;;;;;5.13;2.80;;;;;;;12.49;25.27;102694.72;5098329;28;20044;-79
2021/03/30 02:27:11;;;;;;;4.15;2.53;;;;;;;12.48;25.01;102687.44;5086900;28;20666;-78
2021/03/30 02:29:40;;;;;;;4.80;2.72;;;;;;;12.46;25.57;102683.91;5107825;28;20039;-78
2021/03/30 02:32:13;;;;;;;4.53;2.40;;;;;;;12.47;25.61;102682.94;5117568;27;20467;-79
2021/03/30 02:34:41;;;;;;;;;;;;;;;12.17;25.70;102687.69;5113805;28;20043;-78
2021/03/30 02:37:09;;;;;;;3.58;1.98;;;;;;;12.37;25.47;102679.03;5089930;28;19966;-79
2021/03/30 02:39:36;;;;;;;4.05;2.33;;;;;;;12.38;25.34;102673.44;5095832;28;20686;-79
2021/03/30 02:42:05;;;;;;;4.32;2.40;;;;;;;12.38;25.38;102681.69;5109342;28;20027;-79
2021/03/30 02:44:33;;;;;;;4.72;2.90;;;;;;;12.36;25.30;102683.63;5104369;28;20449;-79
2021/03/30 02:47:00;;;;;;;4.90;2.50;;;;;;;12.35;25.34;102681.88;5067860;28;20071;-78
2021/03/30 02:49:30;;;;;;;4.35;2.60;;;;;;;12.34;25.51;102682.88;5089729;28;20036;-79
2021/03/30 02:51:59;;;;;;;3.80;2.40;;;;;;;12.31;25.51;102677.56;5100160;28;20105;-79
2021/03/30 02:54:28;;;;;;;4.15;2.25;;;;;;;12.31;25.50;102671.19;5094034;28;20042;-79
2021/03/30 02:57:00;;;;;;;4.60;2.50;;;;;;;12.29;25.85;102675.91;5091075;28;20043;-79
2021/03/30 02:59:29;;;;;;;5.97;2.42;;;;;;;12.25;25.19;102671.59;5092655;28;20467;-78
2021/03/30 03:01:58;;;;;;;4.03;2.45;;;;;;;12.27;25.45;102683.34;5112438;28;20059;-78
2021/03/30 03:04:26;;;;;;;4.47;2.72;;;;;;;12.23;25.64;102681.78;5112154;28;20042;-78
2021/03/30 03:06:54;;;;;;;4.25;2.60;;;;;;;12.24;25.73;102678.94;5103608;28;20118;-79
2021/03/30 03:09:21;;;;;;;4.70;2.58;;;;;;;12.20;25.74;102679.22;5106354;28;20050;-79
2021/03/30 03:11:50;;;;;;;4.72;2.50;;;;;;;12.20;25.67;102684.72;5088639;28;20044;-79
2021/03/30 03:14:20;;;;;;;4.78;2.50;;;;;;;12.19;25.72;102680.22;5096995;28;20071;-78
2021/03/30 03:16:51;;;;;;;3.97;2.22;;;;;;;12.15;25.77;102674.06;5096625;28;20043;-79
2021/03/30 03:19:21;;;;;;;4.75;2.53;;;;;;;12.13;25.71;102678.75;5106000;28;20047;-79
2021/03/30 03:21:49;;;;;;;4.57;2.58;;;;;;;12.11;25.81;102680.69;5111303;28;20027;-79
2021/03/30 03:24:18;;;;;;;4.10;2.55;;;;;;;12.10;25.84;102683.56;5091051;28;20038;-79
2021/03/30 03:26:45;;;;;;;4.43;2.63;;;;;;;12.06;25.99;102682.00;5090088;28;20040;-79
2021/03/30 03:29:15;;;;;;;4.60;2.83;;;;;;;12.05;25.95;102681.09;5095825;28;20048;-79
2021/03/30 03:31:43;;;;;;;4.60;2.95;;;;;;;12.03;25.96;102689.44;5100445;28;20035;-78
2021/03/30 03:34:15;;;;;;;5.88;3.03;;;;;;;12.00;26.01;102686.91;5088110;28;20048;-79
2021/03/30 03:36:44;;;;;;;4.90;2.80;;;;;;;11.98;25.91;102688.84;5099191;28;20040;-79
2021/03/30 03:39:14;;;;;;;6.88;2.92;;;;;;;11.95;26.13;102686.28;5092810;28;20031;-79
2021/03/30 03:41:43;;;;;;;4.82;3.25;;;;;;;11.94;26.03;102690.00;5111147;28;20042;-79
2021/03/30 03:44:10;;;;;;;5.57;2.90;;;;;;;11.91;25.95;102683.84;5112560;28;20120;-79
2021/03/30 03:46:39;;;;;;;4.68;2.50;;;;;;;11.88;26.11;102679.41;5096974;28;20048;-79
2021/03/30 03:49:08;;;;;;;4.60;2.53;;;;;;;11.87;26.33;102680.38;5094359;28;20130;-78
2021/03/30 03:51:42;;;;;;;5.07;2.60;;;;;;;11.88;26.34;102687.63;5110426;28;20410;-79
2021/03/30 03:54:13;;;;;;;5.00;2.60;;;;;;;11.83;26.25;102687.03;5097169;28;20051;-78
2021/03/30 03:56:45;;;;;;;4.07;2.55;;;;;;;11.81;26.39;102683.50;5089229;28;20047;-78
2021/03/30 03:59:17;;;;;;;5.07;2.72;;;;;;;11.79;26.21;102679.09;5098514;28;20047;-78
2021/03/30 04:01:48;;;;;;;4.53;2.45;;;;;;;11.75;26.32;102685.75;5102674;27;20039;-78
2021/03/30 04:04:23;;;;;;;4.10;2.65;;;;;;;11.75;26.28;102683.03;5085524;28;20135;-78
2021/03/30 04:06:57;;;;;;;4.25;2.55;;;;;;;11.72;26.78;102686.81;5121774;27;20094;-78
2021/03/30 04:09:26;;;;;;;4.28;2.50;;;;;;;11.70;26.47;102685.16;5084125;28;20047;-78
2021/03/30 04:11:57;;;;;;;4.50;2.70;;;;;;;11.66;26.47;102685.34;5104385;28;20131;-78
2021/03/30 04:14:25;;;;;;;4.80;2.78;;;;;;;11.62;26.62;102700.22;5068986;28;20040;-78
2021/03/30 04:16:53;;;;;;;4.82;2.60;;;;;;;11.61;26.40;102694.81;5095355;28;20546;-78
2021/03/30 04:19:20;;;;;;;4.78;2.55;;;;;;;11.58;26.28;102695.91;5107161;28;20050;-79
2021/03/30 04:21:48;;;;;;;4.75;2.33;;;;;;;11.55;26.47;102692.47;5087115;27;20340;-78
2021/03/30 04:24:19;;;;;;;5.65;2.55;;;;;;;11.52;26.71;102696.31;5102918;28;20040;-79
2021/03/30 04:26:46;;;;;;;4.38;2.63;;;;;;;11.50;26.38;102702.84;5120335;27;20127;-79
2021/03/30 04:29:15;;;;;;;4.88;2.58;;;;;;;11.48;26.54;102696.56;5101012;28;20413;-78
2021/03/30 04:31:42;;;;;;;4.90;2.80;;;;;;;11.45;26.63;102696.75;5112334;27;20043;-79
2021/03/30 04:34:14;;;;;;;4.57;2.40;;;;;;;11.41;26.57;102698.81;5112738;28;20141;-78
2021/03/30 04:36:41;;;;;;;5.13;2.85;;;;;;;11.40;26.65;102704.38;5113813;28;20039;-78
2021/03/30 04:39:08;;;;;;;4.82;2.88;;;;;;;11.37;26.68;102707.28;5110636;28;20046;-79
2021/03/30 04:41:36;;;;;;;4.20;2.38;;;;;;;11.34;26.72;102705.63;5102055;28;20360;-79
2021/03/30 04:44:04;;;;;;;4.57;2.75;;;;;;;11.32;26.76;102709.44;5096338;28;20079;-79
2021/03/30 04:46:33;;;;;;;4.78;2.60;;;;;;;11.29;26.89;102705.00;5101619;28;20078;-79
2021/03/30 04:49:00;;;;;;;5.63;2.45;;;;;;;11.24;26.83;102705.31;5109359;28;20047;-79
2021/03/30 04:51:28;;;;;;;4.82;2.67;;;;;;;11.22;26.90;102707.25;5083772;28;20040;-78
2021/03/30 04:53:55;;;;;;;5.20;2.67;;;;;;;11.20;27.02;102713.78;5105493;28;20039;-78
2021/03/30 04:56:22;;;;;;;5.85;2.80;;;;;;;11.17;27.10;102711.25;5097706;28;20058;-79
2021/03/30 04:58:49;;;;;;;4.95;2.78;;;;;;;11.17;27.00;102705.75;5102892;28;20116;-79
2021/03/30 05:01:17;;;;;;;4.97;2.60;;;;;;;11.13;27.02;102705.03;5080919;28;20038;-79
2021/03/30 05:03:46;;;;;;;4.30;2.50;;;;;;;11.12;26.95;102711.50;5113435;28;20042;-79
2021/03/30 05:06:14;;;;;;;4.30;2.60;;;;;;;11.09;27.07;102724.50;5083021;28;20138;-79
2021/03/30 05:08:41;;;;;;;6.43;2.95;;;;;;;11.07;27.35;102720.97;5093962;28;20046;-80
2021/03/30 05:11:09;;;;;;;5.15;2.60;;;;;;;11.05;27.28;102729.25;5113184;28;20117;-79
2021/03/30 05:13:39;;;;;;;6.10;2.78;;;;;;;11.06;27.43;102727.41;5106748;28;20043;-79
2021/03/30 05:16:07;;;;;;;5.10;3.15;;;;;;;11.02;27.19;102736.81;5112593;27;20118;-78
2021/03/30 05:18:35;;;;;;;6.85;3.47;;;;;;;10.99;27.37;102731.50;5114231;27;20035;-78
2021/03/30 05:21:03;;;;;;;5.07;2.95;;;;;;;10.98;27.20;102732.47;5113799;28;20031;-75
2021/03/30 05:23:34;;;;;;;5.22;2.70;;;;;;;10.95;27.37;102733.50;5103469;27;20039;-77
2021/03/30 05:26:01;;;;;;;5.97;2.92;;;;;;;10.93;27.41;102734.59;5090226;28;20113;-76
2021/03/30 05:28:29;;;;;;;5.05;2.95;;;;;;;10.88;27.45;102741.19;5099552;27;20050;-79
2021/03/30 05:30:58;;;;;;;7.65;3.25;;;;;;;10.87;27.57;102749.50;5118778;27;20039;-78
2021/03/30 05:33:26;;;;;;;4.55;3.00;;;;;;;10.85;27.53;102755.09;5096908;28;20118;-79
2021/03/30 05:35:56;;;;;;;5.75;3.00;;;;;;;10.80;27.61;102746.22;5108061;27;20070;-78
2021/03/30 05:38:24;;;;;;;5.05;2.88;;;;;;;10.82;27.63;102747.00;5090691;28;20040;-77
2021/03/30 05:40:54;;;;;;;5.25;2.92;;;;;;;10.81;27.83;102753.44;5116384;28;20036;-77
2021/03/30 05:43:21;;;;;;;4.97;3.15;;;;;;;10.76;27.72;102744.63;5103208;28;20063;-78
2021/03/30 05:45:50;;;;;;;5.75;2.80;;;;;;;10.75;27.90;102748.34;5098647;28;20090;-78
2021/03/30 05:48:17;;;;;;;5.78;2.67;;;;;;;10.73;27.83;102753.00;5101562;28;20051;-77
2021/03/30 05:50:44;;;;;;;5.30;2.92;;;;;;;10.71;27.78;102754.06;5114942;28;20042;-78
2021/03/30 05:53:14;;;;;;;5.43;2.90;;;;;;;10.70;27.92;102749.59;5103664;28;20104;-80
2021/03/30 05:55:46;;;;;;;5.70;2.85;;;;;;;10.69;28.09;102753.28;5122905;27;20036;-78
2021/03/30 05:58:17;;;;;;;6.00;3.08;;;;;;;10.67;28.06;102753.38;5087666;28;20044;-79
2021/03/30 06:00:46;;;;;;;5.22;2.83;;;;;;;10.66;28.17;102762.53;5107400;27;20591;-79
2021/03/30 06:03:16;;;;;;;4.07;2.67;;;;;;;10.66;28.23;102756.19;5089732;28;20094;-79
2021/03/30 06:05:43;;;;;;;5.53;2.88;;;;;;;10.65;27.90;102763.50;5080519;27;20397;-80
2021/03/30 06:08:13;;;;;;;6.03;2.90;;;;;;;10.67;28.57;102766.16;5112255;27;20420;-83
2021/03/30 06:10:42;;;;;;;5.95;3.20;;;;;;;10.65;27.89;102760.78;5098084;28;20040;-85
2021/03/30 06:13:36;;;;;;;4.65;2.60;;;;;;;10.68;28.54;102763.34;5116703;28;20047;-84
2021/03/30 06:16:22;;;;;;;4.93;3.03;;;;;;;10.66;28.63;102773.50;5072915;28;20039;-88
2021/03/30 06:19:00;;;;;;;4.32;2.78;;;;;;;10.69;28.85;102777.91;5095535;28;20452;-83
2021/03/30 06:21:28;;;;;;;5.28;3.03;;;;;;;10.66;28.19;102780.81;5089674;28;20035;-85
2021/03/30 06:23:58;;;;;;;5.55;3.08;;;;;;;10.69;28.35;102777.91;5097683;28;20039;-78
2021/03/30 06:26:26;;;;;;;5.32;3.00;;;;;;;10.68;28.30;102779.78;5123649;27;20061;-86
2021/03/30 06:28:55;;;;;;;4.95;3.05;;;;;;;10.71;28.38;102781.44;5088393;28;20082;-86
2021/03/30 06:31:23;;;;;;;6.10;3.20;;;;;;;10.70;28.31;102780.53;5116847;28;20368;-83
2021/03/30 06:33:54;;;;;;;5.05;3.05;;;;;;;10.73;28.44;102784.97;5091891;28;20039;-84
2021/03/30 06:36:23;;;;;;;4.78;3.00;;;;;;;10.73;28.70;102783.13;5101639;28;20043;-81
2021/03/30 06:38:58;;;;;;;5.22;3.03;;;;;;;10.76;28.73;102784.81;5118230;27;20031;-79
2021/03/30 06:41:38;;;;;;;5.38;3.50;;;;;;;10.77;28.94;102778.38;5087540;28;20509;-84
2021/03/30 06:44:28;;;;;;;5.07;2.95;;;;;;;10.77;28.77;102778.38;5073739;28;20049;-84
2021/03/30 06:47:01;;;;;;;8.05;3.58;;;;;;;10.80;28.81;102783.66;5056588;28;20044;-84
2021/03/30 06:49:32;;;;;;;8.00;3.47;;;;;;;10.83;28.89;102778.00;5061650;28;20067;-83
2021/03/30 06:52:12;;;;;;;5.20;3.17;;;;;;;10.87;29.13;102785.09;5044834;28;20048;-83
2021/03/30 06:54:54;;;;;;;6.63;3.17;;;;;;;10.96;29.23;102787.31;5035174;28;20054;-85
2021/03/30 06:57:34;;;;;;;6.57;3.13;;;;;;;11.05;29.64;102796.84;5055472;28;20543;-80
2021/03/30 07:00:11;;;;;;;5.27;3.10;;;;;;;11.12;29.63;102796.41;5052548;28;20463;-83
2021/03/30 07:02:45;;;;;;;6.32;3.88;;;;;;;11.28;29.62;102789.06;5071799;28;20427;-86
2021/03/30 07:05:27;;;;;;;5.50;3.38;;;;;;;11.44;29.69;102796.41;5039678;28;20036;-85
2021/03/30 07:07:59;;;;;;;5.30;3.33;;;;;;;11.59;29.65;102792.72;5059704;28;20132;-91
2021/03/30 07:10:39;;;;;;;7.15;3.42;;;;;;;11.78;29.67;102797.97;5059069;28;20045;-85
2021/03/30 07:13:08;;;;;;;5.88;3.53;;;;;;;11.97;29.62;102798.66;5034792;28;20041;-77
2021/03/30 07:15:37;;;;;;;6.13;4.05;;;;;;;12.17;29.36;102795.56;5098161;28;20165;-79
2021/03/30 07:18:21;;;;;;;8.07;3.97;;;;;;;12.38;28.95;102791.47;5113734;28;20563;-78
2021/03/30 07:20:53;;;;;;;7.10;3.58;;;;;;;12.55;29.03;102795.00;5109917;28;20478;-84
2021/03/30 07:23:23;;;;;;;5.28;3.10;;;;;;;12.68;29.17;102790.47;5079008;28;20127;-84
2021/03/30 07:25:59;;;;;;;5.97;3.30;;;;;;;12.88;29.00;102790.06;5079546;28;20121;-83
2021/03/30 07:28:31;;;;;;;6.63;3.78;;;;;;;13.07;29.09;102798.00;5098537;28;20056;-81
2021/03/30 07:31:06;;;;;;;6.33;3.70;;;;;;;13.25;28.60;102796.78;5098117;28;20118;-87
2021/03/30 07:33:47;;;;;;;5.70;3.38;;;;;;;13.50;28.45;102802.34;5100023;28;20036;-87
2021/03/30 07:36:17;;;;;;;7.75;3.55;;;;;;;13.70;28.46;102795.50;5089999;28;20043;-84
2021/03/30 07:38:46;;;;;;;5.72;3.42;;;;;;;13.91;28.38;102804.19;5097213;28;20043;-82
2021/03/30 07:41:19;;;;;;;6.47;3.40;;;;;;;14.13;27.87;102798.03;5109536;28;20490;-87
2021/03/30 07:43:48;;;;;;;6.45;3.40;;;;;;;14.30;28.53;102800.47;5091585;28;20042;-79
2021/03/30 07:46:22;;;;;;;5.82;3.15;;;;;;;14.50;27.80;102794.41;5113399;27;20046;-81
2021/03/30 07:48:49;;;;;;;6.18;3.40;;;;;;;14.67;28.15;102791.31;5092982;28;20039;-82
2021/03/30 07:51:22;;;;;;;5.25;2.95;;;;;;;14.85;27.44;102790.97;5092500;28;20031;-83
2021/03/30 07:53:54;;;;;;;5.97;3.58;;;;;;;14.97;27.14;102795.59;5073788;28;20479;-80
2021/03/30 07:56:56;;;;;;;6.18;3.22;;;;;;;15.07;26.58;102797.53;5093409;28;20085;-83
2021/03/30 07:59:46;;;;;;;;;;;;;;;14.86;26.94;102793.63;5110565;28;20044;-84
2021/03/30 08:02:21;;;;;;;5.78;2.95;;;;;;;15.22;26.14;102797.38;5076183;28;19923;-83
2021/03/30 08:05:10;;;;;;;5.10;2.80;;;;;;;15.29;25.73;102802.31;5108316;27;20039;-82
2021/03/30 08:07:47;;;;;;;5.25;2.80;;;;;;;15.36;25.28;102797.22;5094140;28;20050;-84
2021/03/30 08:10:30;;;;;;;6.95;3.30;;;;;;;15.38;25.01;102793.34;5112945;28;20110;-84
2021/03/30 08:13:32;;;;;;;5.22;2.95;;;;;;;15.38;24.96;102795.22;5091037;28;20406;-81
2021/03/30 08:16:02;;;;;;;5.20;2.60;;;;;;;15.41;25.24;102794.97;5091173;28;20437;-81
2021/03/30 08:18:33;;;;;;;5.60;2.85;;;;;;;15.42;25.20;102796.72;5092232;28;20561;-80
2021/03/30 08:21:05;;;;;;;5.72;3.10;;;;;;;15.47;25.19;102804.69;5091134;27;20059;-81
2021/03/30 08:24:06;;;;;;;4.65;3.03;;;;;;;15.46;24.46;102797.41;5092543;28;20031;-83
2021/03/30 08:26:39;;;;;;;3.85;2.72;;;;;;;15.45;25.10;102796.50;5097028;28;20045;-87
2021/03/30 08:29:09;;;;;;;4.82;2.67;;;;;;;15.47;24.81;102793.63;5114726;27;20110;-88
2021/03/30 08:31:39;;;;;;;6.32;2.95;;;;;;;15.49;24.88;102791.63;5091200;28;20109;-85
2021/03/30 08:34:14;;;;;;;5.88;2.70;;;;;;;15.53;24.95;102794.03;5085658;28;20051;-82
2021/03/30 08:36:49;;;;;;;4.80;2.70;;;;;;;15.53;24.81;102796.81;5076988;28;20051;-84
2021/03/30 08:39:32;;;;;;;4.90;2.80;;;;;;;15.57;24.52;102794.66;5091151;28;20062;-79
2021/03/30 08:42:09;;;;;;;5.05;2.60;;;;;;;15.58;25.26;102801.94;5093679;28;20118;-84
2021/03/30 08:44:45;;;;;;;6.15;2.78;;;;;;;15.65;24.76;102800.50;5113652;28;20028;-84
2021/03/30 08:47:29;;;;;;;5.47;3.15;;;;;;;15.67;25.46;102807.69;5093924;28;20047;-79
2021/03/30 08:50:18;;;;;;;;;;;;;;;15.42;25.69;102802.25;5096050;28;20039;-84
2021/03/30 08:52:48;;;;;;;4.57;2.50;;;;;;;15.71;25.16;102800.94;5099050;28;19973;-83
2021/03/30 08:55:15;;;;;;;4.28;2.53;;;;;;;15.81;25.34;102803.84;5079510;28;20040;-83
2021/03/30 08:57:49;;;;;;;4.55;2.88;;;;;;;15.89;25.13;102804.13;5089945;28;20043;-82
2021/03/30 09:00:18;;;;;;;4.20;2.50;;;;;;;15.94;25.18;102801.91;5092646;28;20039;-80
2021/03/30 09:02:58;;;;;;;9.63;3.72;;;;;;;16.04;25.20;102796.53;5101203;28;20139;-82
2021/03/30 09:05:29;;;;;;;5.15;2.70;;;;;;;16.10;24.81;102807.09;5096407;28;20043;-88
2021/03/30 09:07:57;;;;;;;4.93;2.30;;;;;;;16.17;25.44;102791.78;5083808;28;20081;-82
2021/03/30 09:10:24;;;;;;;4.00;2.50;;;;;;;16.25;25.17;102792.06;5111294;28;20067;-85
2021/03/30 09:12:51;;;;;;;4.95;2.85;;;;;;;16.33;24.68;102796.97;5111268;28;20121;-84
2021/03/30 09:15:19;;;;;;;5.47;2.80;;;;;;;16.43;24.71;102801.63;5077957;28;20040;-83
2021/03/30 09:17:55;;;;;;;4.72;2.80;;;;;;;16.55;24.75;102792.34;5098387;28;20043;-82
2021/03/30 09:20:22;;;;;;;5.22;2.65;;;;;;;16.62;24.88;102794.66;5105964;28;20039;-83
2021/03/30 09:22:55;;;;;;;4.15;2.25;;;;;;;16.74;24.81;102793.63;5110143;28;20578;-82
2021/03/30 09:25:36;;;;;;;5.03;2.90;;;;;;;16.82;24.65;102792.00;5096028;28;20036;-87
2021/03/30 09:28:13;;;;;;;6.93;2.75;;;;;;;16.94;24.54;102791.00;5090073;28;20089;-83
2021/03/30 09:30:43;;;;;;;5.85;2.90;;;;;;;17.06;24.65;102786.31;5100919;28;20067;-83
2021/03/30 09:33:14;;;;;;;5.40;2.95;;;;;;;17.18;24.72;102788.06;5087387;28;20036;-79
2021/03/30 09:35:44;;;;;;;6.43;3.13;;;;;;;17.31;24.28;102774.97;5071044;28;20052;-84
2021/03/30 09:38:15;;;;;;;6.57;3.53;;;;;;;17.44;23.89;102777.59;5109924;28;20437;-83
2021/03/30 09:40:45;;;;;;;5.95;3.15;;;;;;;17.57;24.11;102777.41;5094941;28;20036;-84
2021/03/30 09:43:16;;;;;;;3.63;2.45;;;;;;;17.67;23.86;102779.25;5082393;28;20046;-84
2021/03/30 09:45:45;;;;;;;5.30;3.10;;;;;;;17.81;23.79;102779.94;5113831;28;20051;-86
2021/03/30 09:48:14;;;;;;;4.32;2.63;;;;;;;17.94;23.92;102781.50;5071642;28;20055;-85
2021/03/30 09:50:43;;;;;;;5.45;2.60;;;;;;;18.06;23.62;102776.81;5086804;28;20043;-83
2021/03/30 09:53:11;;;;;;;6.65;3.17;;;;;;;18.20;23.42;102778.34;5096277;28;20455;-85
2021/03/30 09:55:42;;;;;;;7.72;3.03;;;;;;;18.35;23.72;102771.47;5107652;28;20047;-85
2021/03/30 09:58:12;;;;;;;8.02;4.05;;;;;;;18.47;23.33;102778.66;5078319;28;20040;-83
2021/03/30 10:00:42;;;;;;;7.18;3.20;;;;;;;18.58;23.20;102764.72;5085802;28;20044;-85
2021/03/30 10:03:11;;;;;;;6.88;3.33;;;;;;;18.72;23.05;102769.00;5067011;28;20037;-78
2021/03/30 10:05:39;;;;;;;8.80;4.68;;;;;;;18.85;23.29;102768.81;5089451;28;20063;-78
2021/03/30 10:08:17;;;;;;;7.35;3.85;;;;;;;19.01;22.58;102766.38;5088792;28;20093;-77
2021/03/30 10:10:50;;;;;;;8.65;4.60;;;;;;;19.13;22.03;102765.22;5088761;28;20065;-77
2021/03/30 10:13:24;;;;;;;;;;;;;;;18.91;23.38;102771.88;5088354;28;20044;-77
2021/03/30 10:15:52;;;;;;;8.20;4.35;;;;;;;19.29;22.49;102761.88;5085934;28;19928;-78
2021/03/30 10:18:27;;;;;;;8.25;4.82;;;;;;;19.46;22.57;102762.06;5082855;28;20063;-78
2021/03/30 10:20:58;;;;;;;7.63;4.38;;;;;;;19.59;22.24;102767.38;5075847;28;20083;-78
2021/03/30 10:23:34;;;;;;;7.03;3.78;;;;;;;19.72;22.13;102761.50;5092844;28;20396;-77
2021/03/30 10:26:23;;;;;;;8.27;4.30;;;;;;;19.85;22.42;102765.72;5090729;28;20092;-76
2021/03/30 10:28:52;;;;;;;9.40;5.15;;;;;;;19.99;21.63;102760.75;5105845;28;20043;-77
2021/03/30 10:31:29;;;;;;;11.23;5.07;;;;;;;20.12;21.22;102761.31;5097147;28;20055;-77
2021/03/30 10:33:56;;;;;;;8.75;4.15;;;;;;;20.18;21.98;102756.03;5114419;28;20107;-77
2021/03/30 10:36:26;;;;;;;10.57;5.60;;;;;;;20.31;21.44;102752.97;5114494;27;20027;-78
2021/03/30 10:39:10;;;;;;;9.95;5.38;;;;;;;20.44;20.99;102750.72;5115504;27;20552;-77
2021/03/30 10:41:44;;;;;;;10.77;5.68;;;;;;;20.54;21.40;102745.13;5096948;28;20047;-78
2021/03/30 10:44:17;;;;;;;9.65;5.20;;;;;;;20.64;21.32;102751.53;5111744;28;20038;-76
2021/03/30 10:46:45;;;;;;;9.93;5.13;;;;;;;20.76;21.32;102746.63;5112728;27;20040;-75
2021/03/30 10:49:15;;;;;;;10.25;5.68;;;;;;;20.85;20.49;102751.28;5112639;28;20050;-76
2021/03/30 10:51:46;;;;;;;11.07;6.30;;;;;;;20.95;20.27;102750.22;5103514;28;20506;-75
2021/03/30 10:54:17;;;;;;;10.30;6.25;;;;;;;21.04;20.16;102743.75;5112213;28;20035;-76
2021/03/30 10:56:46;;;;;;;11.63;6.88;;;;;;;21.13;19.98;102752.19;5110920;28;20078;-76
2021/03/30 10:59:15;;;;;;;11.95;5.88;;;;;;;21.22;20.10;102732.63;5114481;27;20067;-76
2021/03/30 11:01:42;;;;;;;11.45;6.05;;;;;;;21.29;20.07;102738.44;5115494;27;20130;-76
2021/03/30 11:04:10;;;;;;;12.43;6.53;;;;;;;21.38;19.99;102735.59;5106361;28;20040;-79
2021/03/30 11:06:37;;;;;;;13.07;6.55;;;;;;;21.44;19.53;102729.38;5113085;28;20035;-79
2021/03/30 11:09:06;;;;;;;13.05;7.00;;;;;;;21.53;19.51;102735.03;5108279;27;20337;-76
2021/03/30 11:11:33;;;;;;;11.90;6.55;;;;;;;21.58;19.20;102730.75;5096287;28;20456;-79
2021/03/30 11:14:01;;;;;;;12.32;6.75;;;;;;;21.67;19.20;102726.13;5113486;28;20073;-77
2021/03/30 11:16:29;;;;;;;10.35;6.07;;;;;;;21.72;19.04;102719.06;5111670;28;20121;-76
2021/03/30 11:18:56;;;;;;;9.40;5.00;;;;;;;21.79;18.88;102713.72;5107162;27;20494;-79
2021/03/30 11:21:24;;;;;;;12.30;6.85;;;;;;;21.85;18.63;102715.84;5112563;28;20047;-79
2021/03/30 11:23:58;;;;;;;10.35;5.80;;;;;;;21.91;18.81;102703.16;5108375;28;20143;-79
2021/03/30 11:26:25;;;;;;;13.45;6.63;;;;;;;21.96;18.55;102696.09;5104075;28;20048;-80
2021/03/30 11:28:54;;;;;;;11.77;6.03;;;;;;;22.03;18.65;102701.88;5097225;28;20054;-79
2021/03/30 11:31:35;;;;;;;14.68;8.57;;;;;;;22.09;18.46;102699.31;5113543;28;20085;-78
2021/03/30 11:34:09;;;;;;;12.85;7.05;;;;;;;22.12;17.95;102696.19;5110645;27;20610;-77
2021/03/30 11:36:40;;;;;;;12.70;6.57;;;;;;;22.19;18.07;102683.34;5101225;28;20040;-77
2021/03/30 11:39:08;;;;;;;9.73;5.50;;;;;;;22.28;18.25;102683.44;5111017;28;20036;-77
2021/03/30 11:41:35;;;;;;;9.88;5.50;;;;;;;22.33;17.45;102676.31;5112232;27;20050;-76
2021/03/30 11:44:02;;;;;;;9.00;4.82;;;;;;;22.39;17.72;102680.38;5111459;28;20040;-77
2021/03/30 11:46:31;;;;;;;9.50;4.85;;;;;;;22.45;17.53;102672.19;5111463;28;20134;-76